createdAt,value
2022-11-29T00:02:07.795Z,101344.09
2022-11-29T00:04:37.033Z,101335.41
2022-11-29T00:07:05.962Z,101335.16
2022-11-29T00:09:34.852Z,101335.38
2022-11-29T00:12:16.003Z,101337.25
2022-11-29T00:14:45.035Z,101293.16
2022-11-29T00:17:16.061Z,101341.66
2022-11-29T00:19:45.186Z,101343.38
2022-11-29T00:22:13.911Z,101346.91
2022-11-29T00:24:43.393Z,101333.31
2022-11-29T00:27:12.337Z,101352.09
2022-11-29T00:29:41.458Z,101349.41
2022-11-29T00:32:10.109Z,101353.50
2022-11-29T00:34:40.787Z,101352.72
2022-11-29T00:37:10.246Z,101355.38
2022-11-29T00:39:39.373Z,101351.22
2022-11-29T00:42:08.520Z,101349.59
2022-11-29T00:44:37.510Z,101357.97
2022-11-29T00:47:09.401Z,101363.84
2022-11-29T00:49:40.325Z,101358.66
2022-11-29T00:52:09.151Z,101359.06
2022-11-29T00:54:38.112Z,101356.53
2022-11-29T00:57:06.798Z,101354.00
2022-11-29T00:59:35.576Z,101359.13
2022-11-29T01:02:04.436Z,101363.47
2022-11-29T01:04:33.380Z,101359.16
2022-11-29T01:07:06.579Z,101366.03
2022-11-29T01:09:35.495Z,101357.25
2022-11-29T01:12:05.328Z,101360.53
2022-11-29T01:14:34.679Z,101363.16
2022-11-29T01:17:04.098Z,101368.47
2022-11-29T01:19:32.862Z,101347.06
2022-11-29T01:22:02.016Z,101359.13
2022-11-29T01:24:34.556Z,101361.75
2022-11-29T01:27:03.178Z,101361.88
2022-11-29T01:29:32.592Z,101367.97
2022-11-29T01:32:01.264Z,101357.66
2022-11-29T01:34:34.078Z,101364.47
2022-11-29T01:37:02.703Z,101373.97
2022-11-29T01:39:35.349Z,101374.81
2022-11-29T01:42:04.531Z,101376.66
2022-11-29T01:45:01.883Z,101381.84
2022-11-29T01:47:31.558Z,101373.19
2022-11-29T01:50:00.964Z,101375.81
2022-11-29T01:52:34.032Z,101381.78
2022-11-29T01:55:06.788Z,101379.13
2022-11-29T01:57:37.968Z,101378.31
2022-11-29T02:00:11.312Z,101364.03
2022-11-29T02:02:45.571Z,101392.25
2022-11-29T02:05:18.309Z,101388.81
2022-11-29T02:07:51.205Z,101392.19
2022-11-29T02:10:23.515Z,101384.50
2022-11-29T02:12:59.972Z,101394.06
2022-11-29T02:15:41.655Z,101392.34
2022-11-29T02:18:14.809Z,101390.69
2022-11-29T02:21:12.272Z,101390.72
2022-11-29T02:24:23.934Z,101397.06
2022-11-29T02:27:29.071Z,101400.59
2022-11-29T02:30:15.687Z,101393.00
2022-11-29T02:33:15.697Z,101400.00
2022-11-29T02:36:24.146Z,101397.44
2022-11-29T02:39:08.975Z,101397.47
2022-11-29T02:41:58.564Z,101409.72
2022-11-29T02:44:51.110Z,101409.78
2022-11-29T02:47:33.293Z,101414.22
2022-11-29T02:50:18.630Z,101416.81
2022-11-29T02:52:56.227Z,101428.03
2022-11-29T02:55:34.820Z,101434.03
2022-11-29T02:58:16.171Z,101429.72
2022-11-29T03:00:53.360Z,101435.72
2022-11-29T03:03:28.146Z,101436.50
2022-11-29T03:06:09.271Z,101440.03
2022-11-29T03:08:46.502Z,101432.50
2022-11-29T03:11:25.381Z,101452.88
2022-11-29T03:14:07.670Z,101446.84
2022-11-29T03:16:44.698Z,101453.72
2022-11-29T03:19:32.407Z,101455.53
2022-11-29T03:22:12.043Z,101446.06
2022-11-29T03:24:48.428Z,101457.19
2022-11-29T03:27:22.320Z,101451.28
2022-11-29T03:29:56.947Z,101460.94
2022-11-29T03:32:31.258Z,101468.69
2022-11-29T03:35:07.902Z,101459.16
2022-11-29T03:37:47.236Z,101465.25
2022-11-29T03:40:21.472Z,101469.63
2022-11-29T03:42:57.698Z,101487.72
2022-11-29T03:45:33.091Z,101384.47
2022-11-29T03:48:08.522Z,101472.94
2022-11-29T03:50:40.609Z,101437.22
2022-11-29T03:53:21.324Z,101478.22
2022-11-29T03:55:54.569Z,101490.47
2022-11-29T03:58:40.366Z,101481.63
2022-11-29T04:01:42.647Z,101489.31
2022-11-29T04:04:40.077Z,101482.59
2022-11-29T04:07:32.519Z,101421.56
2022-11-29T04:10:17.718Z,101493.47
2022-11-29T04:13:22.580Z,101498.78
2022-11-29T04:16:19.322Z,101501.31
2022-11-29T04:19:23.701Z,101502.28
2022-11-29T04:22:29.002Z,101515.09
2022-11-29T04:25:23.854Z,101497.19
2022-11-29T04:28:14.631Z,101510.72
2022-11-29T04:30:55.368Z,101502.19
2022-11-29T04:33:50.031Z,101505.69
2022-11-29T04:36:47.765Z,101495.34
2022-11-29T04:39:50.839Z,101506.47
2022-11-29T04:42:40.534Z,101509.00
2022-11-29T04:45:36.173Z,101515.94
2022-11-29T04:48:21.869Z,101516.81
2022-11-29T04:51:04.477Z,101517.56
2022-11-29T04:53:51.807Z,101523.78
2022-11-29T04:56:32.600Z,101530.66
2022-11-29T04:59:10.704Z,101516.22
2022-11-29T05:01:55.859Z,101528.94
2022-11-29T05:04:34.464Z,101527.22
2022-11-29T05:07:09.543Z,101527.16
2022-11-29T05:09:59.057Z,101538.31
2022-11-29T05:12:34.511Z,101547.03
2022-11-29T05:15:43.020Z,101557.97
2022-11-29T05:18:23.887Z,101539.41
2022-11-29T05:20:59.226Z,101556.38
2022-11-29T05:23:50.301Z,101561.50
2022-11-29T05:26:27.110Z,101550.41
2022-11-29T05:29:04.538Z,101556.38
2022-11-29T05:32:12.593Z,101559.09
2022-11-29T05:34:53.265Z,101561.66
2022-11-29T05:37:32.674Z,101564.19
2022-11-29T05:40:28.805Z,101565.88
2022-11-29T05:43:13.903Z,101552.25
2022-11-29T05:45:53.582Z,101571.06
2022-11-29T05:48:32.918Z,101577.94
2022-11-29T05:51:20.979Z,101581.38
2022-11-29T05:54:00.421Z,101586.41
2022-11-29T05:56:41.435Z,101577.97
2022-11-29T05:59:16.404Z,101584.44
2022-11-29T06:01:53.460Z,101591.41
2022-11-29T06:04:33.712Z,101596.31
2022-11-29T06:07:13.030Z,101516.44
2022-11-29T06:09:49.399Z,101604.44
2022-11-29T06:12:21.993Z,101608.06
2022-11-29T06:15:11.714Z,101617.38
2022-11-29T06:18:09.095Z,101617.53
2022-11-29T06:20:55.199Z,101624.44
2022-11-29T06:23:48.469Z,101626.22
2022-11-29T06:26:30.335Z,101633.94
2022-11-29T06:29:19.277Z,101635.69
2022-11-29T06:31:53.481Z,101637.38
2022-11-29T06:34:34.878Z,101634.66
2022-11-29T06:37:14.598Z,101632.25
2022-11-29T06:39:44.058Z,101620.31
2022-11-29T06:42:12.729Z,101641.63
2022-11-29T06:44:44.927Z,101639.09
2022-11-29T06:47:24.973Z,101653.78
2022-11-29T06:50:03.674Z,101519.84
2022-11-29T06:52:44.392Z,101653.03
2022-11-29T06:55:18.675Z,101666.66
2022-11-29T06:58:07.572Z,101670.09
2022-11-29T07:00:50.554Z,101668.44
2022-11-29T07:03:41.019Z,101672.75
2022-11-29T07:06:16.504Z,101671.00
2022-11-29T07:08:52.888Z,101680.38
2022-11-29T07:11:22.802Z,101679.47
2022-11-29T07:13:52.239Z,101687.06
2022-11-29T07:16:28.340Z,101652.28
2022-11-29T07:19:08.182Z,101681.31
2022-11-29T07:21:47.119Z,101698.31
2022-11-29T07:24:33.433Z,101701.88
2022-11-29T07:27:13.807Z,101702.78
2022-11-29T07:29:50.183Z,101702.69
2022-11-29T07:32:28.311Z,101525.22
2022-11-29T07:35:09.952Z,101703.75
2022-11-29T07:37:50.002Z,101710.66
2022-11-29T07:40:31.916Z,101710.66
2022-11-29T07:43:19.878Z,101714.97
2022-11-29T07:45:48.826Z,101714.09
2022-11-29T07:48:19.067Z,101713.25
2022-11-29T07:50:50.888Z,101716.63
2022-11-29T07:53:21.154Z,101720.97
2022-11-29T07:55:51.707Z,101720.03
2022-11-29T07:58:20.544Z,101732.13
2022-11-29T08:00:49.332Z,101726.09
2022-11-29T08:03:20.431Z,101737.16
2022-11-29T08:05:49.414Z,101737.25
2022-11-29T08:08:20.345Z,101737.09
2022-11-29T08:10:49.021Z,101712.56
2022-11-29T08:13:22.282Z,101731.47
2022-11-29T08:15:51.610Z,101746.84
2022-11-29T08:18:20.257Z,101749.44
2022-11-29T08:20:49.323Z,101750.06
2022-11-29T08:23:21.000Z,101754.38
2022-11-29T08:25:50.031Z,101752.28
2022-11-29T08:28:18.711Z,101748.13
2022-11-29T08:30:48.751Z,101757.25
2022-11-29T08:33:17.408Z,101754.81
2022-11-29T08:35:46.384Z,101762.94
2022-11-29T08:38:15.196Z,101761.38
2022-11-29T08:40:45.965Z,101790.72
2022-11-29T08:43:14.693Z,101754.47
2022-11-29T08:45:43.378Z,101758.44
2022-11-29T08:48:14.969Z,101769.00
2022-11-29T08:50:44.209Z,101769.03
2022-11-29T08:53:30.293Z,101768.22
2022-11-29T08:56:12.033Z,101770.00
2022-11-29T08:58:51.101Z,101779.47
2022-11-29T09:01:22.496Z,101786.72
2022-11-29T09:04:02.930Z,101782.53
2022-11-29T09:06:34.173Z,101780.75
2022-11-29T09:09:06.533Z,101785.97
2022-11-29T09:11:38.269Z,101791.09
2022-11-29T09:14:08.639Z,101794.38
2022-11-29T09:16:39.255Z,101793.50
2022-11-29T09:19:15.499Z,101792.72
2022-11-29T09:21:49.308Z,101801.38
2022-11-29T09:24:19.665Z,101793.91
2022-11-29T09:26:48.852Z,101803.22
2022-11-29T09:29:18.515Z,101809.19
2022-11-29T09:31:47.788Z,101813.34
2022-11-29T09:34:20.427Z,101816.78
2022-11-29T09:36:49.614Z,101817.69
2022-11-29T09:39:21.354Z,101814.25
2022-11-29T09:42:09.989Z,101824.56
2022-11-29T09:44:49.600Z,101802.13
2022-11-29T09:47:32.908Z,101811.47
2022-11-29T09:50:12.601Z,101819.31
2022-11-29T09:52:53.334Z,101800.88
2022-11-29T09:55:47.713Z,101828.44
2022-11-29T09:58:21.923Z,101826.75
2022-11-29T10:00:54.971Z,101828.38
2022-11-29T10:03:32.921Z,101825.72
2022-11-29T10:06:08.826Z,101830.91
2022-11-29T10:08:45.211Z,101831.72
2022-11-29T10:11:23.098Z,101832.50
2022-11-29T10:14:00.004Z,101832.56
2022-11-29T10:16:40.129Z,101835.00
2022-11-29T10:19:17.155Z,101834.28
2022-11-29T10:21:59.095Z,101829.13
2022-11-29T10:24:34.281Z,101837.69
2022-11-29T10:27:04.435Z,101841.09
2022-11-29T10:29:33.150Z,101846.16
2022-11-29T10:32:09.991Z,101845.09
2022-11-29T10:34:39.926Z,101843.38
2022-11-29T10:37:17.549Z,101845.03
2022-11-29T10:39:49.250Z,101850.91
2022-11-29T10:42:37.222Z,101847.50
2022-11-29T10:45:13.566Z,101847.56
2022-11-29T10:47:42.481Z,101841.53
2022-11-29T10:50:17.729Z,101705.66
2022-11-29T10:52:47.851Z,101838.78
2022-11-29T10:55:19.088Z,101817.22
2022-11-29T10:58:11.474Z,101835.78
2022-11-29T11:00:51.584Z,101843.66
2022-11-29T11:03:37.867Z,101824.78
2022-11-29T11:06:12.722Z,101833.38
2022-11-29T11:08:45.277Z,101840.81
2022-11-29T11:11:15.059Z,101846.81
2022-11-29T11:13:59.872Z,101834.91
2022-11-29T11:16:31.664Z,101842.63
2022-11-29T11:19:29.218Z,101847.06
2022-11-29T11:21:59.063Z,101829.06
2022-11-29T11:24:32.283Z,101836.59
2022-11-29T11:27:02.275Z,101841.75
2022-11-29T11:29:37.022Z,101842.66
2022-11-29T11:32:16.072Z,101846.13
2022-11-29T11:34:53.007Z,101848.78
2022-11-29T11:37:25.310Z,101849.59
2022-11-29T11:39:57.464Z,101845.41
2022-11-29T11:42:39.486Z,101855.63
2022-11-29T11:45:28.911Z,101857.19
2022-11-29T11:48:00.544Z,101856.28
2022-11-29T11:50:35.047Z,101858.78
2022-11-29T11:53:07.069Z,101857.00
2022-11-29T11:55:42.586Z,101862.16
2022-11-29T11:58:19.837Z,101862.91
2022-11-29T12:01:06.571Z,101863.81
2022-11-29T12:03:42.353Z,101859.81
2022-11-29T12:06:36.486Z,101864.28
2022-11-29T12:09:11.896Z,101834.72
2022-11-29T12:11:47.003Z,101874.06
2022-11-29T12:14:25.704Z,101874.94
2022-11-29T12:17:20.247Z,101845.91
2022-11-29T12:20:04.351Z,101883.44
2022-11-29T12:22:43.905Z,101881.78
2022-11-29T12:25:20.653Z,101879.97
2022-11-29T12:27:51.754Z,101878.31
2022-11-29T12:30:23.272Z,101881.63
2022-11-29T12:33:11.247Z,101887.69
2022-11-29T12:35:51.565Z,101880.34
2022-11-29T12:38:36.161Z,101894.25
2022-11-29T12:41:16.425Z,101890.63
2022-11-29T12:43:56.931Z,101896.41
2022-11-29T12:46:30.313Z,101797.81
2022-11-29T12:49:06.259Z,101885.94
2022-11-29T12:51:44.784Z,101904.56
2022-11-29T12:54:29.317Z,101906.28
2022-11-29T12:57:09.121Z,101908.13
2022-11-29T12:59:57.176Z,101919.09
2022-11-29T13:02:36.042Z,101916.38
2022-11-29T13:05:17.890Z,101910.47
2022-11-29T13:08:03.378Z,101912.09
2022-11-29T13:10:37.128Z,101907.78
2022-11-29T13:13:15.244Z,101908.59
2022-11-29T13:15:53.388Z,101896.25
2022-11-29T13:18:28.364Z,101901.78
2022-11-29T13:21:02.496Z,101903.56
2022-11-29T13:24:07.366Z,101909.84
2022-11-29T13:26:31.187Z,101888.72
2022-11-29T13:29:04.266Z,101909.16
2022-11-29T13:31:35.319Z,101907.97
2022-11-29T13:34:11.110Z,101901.31
2022-11-29T13:36:48.488Z,101902.16
2022-11-29T13:39:33.725Z,101901.44
2022-11-29T13:42:10.544Z,101905.72
2022-11-29T13:44:53.102Z,101905.75
2022-11-29T13:47:26.961Z,101903.16
2022-11-29T13:50:02.650Z,101894.63
2022-11-29T13:52:49.801Z,101897.97
2022-11-29T13:55:31.246Z,101909.38
2022-11-29T13:58:22.235Z,101906.84
2022-11-29T14:00:52.949Z,101920.69
2022-11-29T14:03:36.325Z,101917.50
2022-11-29T14:06:10.325Z,101919.91
2022-11-29T14:09:10.851Z,101892.31
2022-11-29T14:11:45.653Z,101820.63
2022-11-29T14:14:29.023Z,101927.75
2022-11-29T14:17:01.271Z,101926.81
2022-11-29T14:19:34.315Z,101919.09
2022-11-29T14:22:30.446Z,101923.50
2022-11-29T14:25:50.489Z,101932.06
2022-11-29T14:28:32.311Z,101926.88
2022-11-29T14:31:02.660Z,101930.31
2022-11-29T14:33:52.215Z,101939.78
2022-11-29T14:36:47.543Z,101916.78
2022-11-29T14:39:29.535Z,101937.31
2022-11-29T14:42:14.495Z,101942.53
2022-11-29T14:44:49.544Z,101943.41
2022-11-29T14:47:29.931Z,101941.50
2022-11-29T14:50:00.916Z,101938.13
2022-11-29T14:52:33.876Z,101919.47
2022-11-29T14:55:08.184Z,101939.31
2022-11-29T14:58:16.263Z,101941.88
2022-11-29T15:01:09.735Z,101955.72
2022-11-29T15:03:50.769Z,101959.22
2022-11-29T15:06:27.183Z,101956.63
2022-11-29T15:09:04.192Z,101953.22
2022-11-29T15:11:48.143Z,101952.38
2022-11-29T15:14:30.621Z,101956.69
2022-11-29T15:17:13.260Z,101957.56
2022-11-29T15:20:00.203Z,101935.59
2022-11-29T15:22:44.399Z,101861.84
2022-11-29T15:25:19.508Z,101967.91
2022-11-29T15:27:52.747Z,101960.22
2022-11-29T15:30:28.639Z,101964.47
2022-11-29T15:32:57.950Z,101967.94
2022-11-29T15:35:26.874Z,101959.47
2022-11-29T15:37:56.535Z,101927.91
2022-11-29T15:40:34.567Z,101955.41
2022-11-29T15:43:14.579Z,101971.66
2022-11-29T15:45:49.029Z,101980.41
2022-11-29T15:48:23.035Z,101971.91
2022-11-29T15:51:05.569Z,101975.28
2022-11-29T15:53:39.607Z,101968.38
2022-11-29T15:56:16.474Z,101970.19
2022-11-29T15:58:47.149Z,101974.53
2022-11-29T16:01:21.801Z,101974.56
2022-11-29T16:03:54.359Z,101965.16
2022-11-29T16:06:28.528Z,101972.91
2022-11-29T16:08:59.139Z,101977.28
2022-11-29T16:11:32.704Z,101993.75
2022-11-29T16:14:14.731Z,101978.31
2022-11-29T16:16:46.279Z,101989.50
2022-11-29T16:19:30.036Z,101991.28
2022-11-29T16:22:15.313Z,101983.63
2022-11-29T16:24:54.803Z,101976.81
2022-11-29T16:27:26.178Z,101982.88
2022-11-29T16:29:56.179Z,101989.00
2022-11-29T16:32:28.838Z,101988.88
2022-11-29T16:34:59.066Z,101986.44
2022-11-29T16:37:32.337Z,101993.44
2022-11-29T16:40:03.391Z,101990.91
2022-11-29T16:42:34.415Z,101746.41
2022-11-29T16:45:24.659Z,101858.50
2022-11-29T16:47:58.482Z,102000.66
2022-11-29T16:50:28.941Z,101991.22
2022-11-29T16:53:17.900Z,101993.03
2022-11-29T16:55:46.647Z,101994.81
2022-11-29T16:58:17.968Z,101994.00
2022-11-29T17:00:47.492Z,101994.09
2022-11-29T17:03:16.552Z,101990.69
2022-11-29T17:05:45.337Z,102001.91
2022-11-29T17:08:14.392Z,101996.81
2022-11-29T17:10:47.340Z,102000.44
2022-11-29T17:13:17.928Z,102006.41
2022-11-29T17:15:47.117Z,102002.13
2022-11-29T17:18:16.189Z,102002.16
2022-11-29T17:20:49.547Z,102008.19
2022-11-29T17:23:19.585Z,102023.75
2022-11-29T17:25:57.533Z,102012.63
2022-11-29T17:28:27.614Z,102016.94
2022-11-29T17:30:56.824Z,102021.22
2022-11-29T17:33:25.545Z,102023.00
2022-11-29T17:35:54.137Z,102029.00
2022-11-29T17:38:23.071Z,102025.66
2022-11-29T17:40:51.775Z,102027.44
2022-11-29T17:43:20.515Z,102024.09
2022-11-29T17:45:50.556Z,102026.59
2022-11-29T17:48:19.808Z,102026.75
2022-11-29T17:50:48.653Z,102034.41
2022-11-29T17:53:19.808Z,102033.56
2022-11-29T17:55:48.517Z,102035.28
2022-11-29T17:58:17.173Z,102027.56
2022-11-29T18:00:48.114Z,102031.00
2022-11-29T18:03:18.294Z,102035.34
2022-11-29T18:05:48.720Z,102040.47
2022-11-29T18:08:18.050Z,102042.22
2022-11-29T18:10:47.449Z,102047.34
2022-11-29T18:13:16.157Z,102043.84
2022-11-29T18:15:44.934Z,102054.81
2022-11-29T18:18:13.676Z,102052.25
2022-11-29T18:20:43.981Z,102045.34
2022-11-29T18:23:12.916Z,102049.81
2022-11-29T18:25:41.661Z,102051.47
2022-11-29T18:28:14.012Z,102056.59
2022-11-29T18:30:43.375Z,102055.69
2022-11-29T18:33:12.379Z,102053.06
2022-11-29T18:35:41.024Z,102054.84
2022-11-29T18:38:16.090Z,102061.78
2022-11-29T18:40:46.721Z,102069.47
2022-11-29T18:43:18.108Z,102065.34
2022-11-29T18:45:46.934Z,102074.03
2022-11-29T18:48:15.692Z,102075.78
2022-11-29T18:50:44.859Z,102080.16
2022-11-29T18:53:15.395Z,102081.06
2022-11-29T18:55:47.026Z,102088.81
2022-11-29T18:58:17.364Z,102078.44
2022-11-29T19:00:46.033Z,102083.59
2022-11-29T19:03:15.884Z,102085.31
2022-11-29T19:05:52.930Z,102087.00
2022-11-29T19:08:23.226Z,102077.47
2022-11-29T19:10:55.662Z,102084.38
2022-11-29T19:13:24.374Z,102091.28
2022-11-29T19:15:57.053Z,102081.72
2022-11-29T19:18:29.758Z,102082.69
2022-11-29T19:21:05.300Z,102081.81
2022-11-29T19:23:36.604Z,102084.97
2022-11-29T19:26:06.205Z,101993.19
2022-11-29T19:28:36.679Z,102062.44
2022-11-29T19:31:06.054Z,102083.81
2022-11-29T19:33:36.539Z,101914.59
2022-11-29T19:36:06.689Z,102085.09
2022-11-29T19:38:40.181Z,102086.88
2022-11-29T19:41:10.439Z,102081.69
2022-11-29T19:43:39.562Z,102093.66
2022-11-29T19:46:12.176Z,102092.03
2022-11-29T19:48:41.743Z,102090.94
2022-11-29T19:51:12.679Z,102081.38
2022-11-29T19:53:46.031Z,102085.56
2022-11-29T19:56:21.793Z,102086.50
2022-11-29T19:58:51.736Z,102101.06
2022-11-29T20:01:23.115Z,102102.59
2022-11-29T20:03:56.611Z,102104.28
2022-11-29T20:06:28.239Z,102105.19
2022-11-29T20:08:59.279Z,102106.88
2022-11-29T20:11:28.019Z,102116.16
2022-11-29T20:13:58.862Z,102120.44
2022-11-29T20:16:29.936Z,102111.75
2022-11-29T20:19:02.042Z,102110.81
2022-11-29T20:21:34.020Z,102110.94
2022-11-29T20:24:07.096Z,102121.25
2022-11-29T20:26:38.515Z,102122.16
2022-11-29T20:29:10.075Z,102127.31
2022-11-29T20:31:44.323Z,102029.75
2022-11-29T20:34:19.707Z,102123.06
2022-11-29T20:37:06.813Z,102129.88
2022-11-29T20:39:47.135Z,102132.47
2022-11-29T20:42:46.957Z,102131.59
2022-11-29T20:45:20.788Z,102130.75
2022-11-29T20:47:54.349Z,102135.06
2022-11-29T20:50:25.380Z,102137.59
2022-11-29T20:53:08.683Z,102128.16
2022-11-29T20:55:44.840Z,102132.47
2022-11-29T20:58:15.215Z,102121.41
2022-11-29T21:00:44.135Z,102141.94
2022-11-29T21:03:14.700Z,102152.28
2022-11-29T21:05:44.165Z,102149.72
2022-11-29T21:08:13.477Z,102145.38
2022-11-29T21:10:44.373Z,102144.50
2022-11-29T21:13:19.291Z,102152.25
2022-11-29T21:15:49.346Z,102145.38
2022-11-29T21:18:22.978Z,102139.19
2022-11-29T21:21:03.737Z,102146.91
2022-11-29T21:23:44.152Z,102151.31
2022-11-29T21:26:18.139Z,102153.88
2022-11-29T21:28:56.843Z,102152.16
2022-11-29T21:31:26.783Z,102133.34
2022-11-29T21:34:01.529Z,102148.72
2022-11-29T21:36:33.736Z,102140.09
2022-11-29T21:39:05.271Z,102140.91
2022-11-29T21:41:39.012Z,102137.47
2022-11-29T21:44:08.461Z,102140.06
2022-11-29T21:46:38.008Z,102140.72
2022-11-29T21:49:06.957Z,102111.53
2022-11-29T21:52:07.450Z,102149.31
2022-11-29T21:54:36.484Z,102133.59
2022-11-29T21:57:10.154Z,102141.31
2022-11-29T21:59:41.374Z,102142.81
2022-11-29T22:02:10.507Z,102141.06
2022-11-29T22:04:39.996Z,102143.69
2022-11-29T22:07:08.721Z,102147.84
2022-11-29T22:09:37.560Z,102143.56
2022-11-29T22:12:26.224Z,102147.91
2022-11-29T22:14:57.308Z,102158.06
2022-11-29T22:17:26.947Z,102153.00
2022-11-29T22:19:59.289Z,102148.81
2022-11-29T22:22:28.508Z,102152.38
2022-11-29T22:24:57.192Z,102010.91
2022-11-29T22:27:26.165Z,102150.72
2022-11-29T22:29:54.973Z,102150.81
2022-11-29T22:32:26.027Z,102150.88
2022-11-29T22:34:54.903Z,102145.63
2022-11-29T22:37:23.830Z,102149.09
2022-11-29T22:39:52.864Z,102158.50
2022-11-29T22:42:21.733Z,102153.13
2022-11-29T22:44:50.653Z,102159.19
2022-11-29T22:47:19.521Z,102155.84
2022-11-29T22:49:52.859Z,102056.59
2022-11-29T22:52:21.883Z,102142.13
2022-11-29T22:54:53.321Z,102159.28
2022-11-29T22:57:24.563Z,102160.91
2022-11-29T22:59:53.372Z,102160.09
2022-11-29T23:02:25.865Z,102164.44
2022-11-29T23:04:56.380Z,102166.13
2022-11-29T23:07:25.872Z,102168.81
2022-11-29T23:09:56.105Z,102166.25
2022-11-29T23:12:25.220Z,102167.13
2022-11-29T23:14:56.645Z,102166.44
2022-11-29T23:17:26.428Z,102168.94
2022-11-29T23:19:56.728Z,102167.09
2022-11-29T23:22:26.089Z,102171.59
2022-11-29T23:24:57.375Z,102168.97
2022-11-29T23:27:26.551Z,102171.44
2022-11-29T23:29:55.519Z,102169.00
2022-11-29T23:32:24.908Z,102170.66
2022-11-29T23:34:57.885Z,102171.59
2022-11-29T23:37:27.989Z,102183.00
2022-11-29T23:39:57.114Z,102153.72
2022-11-29T23:42:27.182Z,102175.78
2022-11-29T23:44:56.202Z,102185.09
2022-11-29T23:47:26.250Z,102180.91
2022-11-29T23:49:55.031Z,102171.56
2022-11-29T23:52:25.939Z,102175.09
2022-11-29T23:54:54.831Z,102177.56
2022-11-29T23:57:23.672Z,102183.28
2022-11-29T23:59:53.154Z,102183.47
